Time;durP1;ratioP1;P1;durP2;ratioP2;P2;SDS_P1;SDS_P2;PMS_P1;PMS_P2;Temp;Humidity;BMP_temperature;BMP_pressure;BME280_temperature;BME280_humidity;BME280_pressure;Samples;Min_cycle;Max_cycle;Signal;HPM_P1;HPM_P2
2022/06/14 00:03:39;;;;;;;10.00;2.60;;;10.40;84.70;;;;;;5031447;28;20091;-44
2022/06/14 00:06:15;;;;;;;7.78;2.70;;;10.40;84.90;;;;;;5034787;28;20029;-43
2022/06/14 00:08:42;;;;;;;6.53;2.92;;;10.40;85.20;;;;;;5048117;28;20033;-44
2022/06/14 00:11:22;;;;;;;6.55;2.65;;;10.30;85.30;;;;;;5048048;28;20108;-44
2022/06/14 00:13:53;;;;;;;6.95;2.83;;;10.30;85.50;;;;;;5032399;28;20091;-45
2022/06/14 00:16:20;;;;;;;9.85;3.85;;;10.30;85.50;;;;;;5047964;28;20037;-44
2022/06/14 00:18:47;;;;;;;7.35;3.10;;;10.30;85.60;;;;;;5048133;28;20029;-43
2022/06/14 00:21:14;;;;;;;6.03;2.13;;;10.30;85.60;;;;;;5047830;28;20121;-46
2022/06/14 00:23:41;;;;;;;6.13;2.60;;;10.20;85.80;;;;;;5046018;28;20469;-45
2022/06/14 00:26:11;;;;;;;8.82;2.85;;;10.30;85.70;;;;;;5047894;28;20064;-44
2022/06/14 00:28:36;;;;;;;12.23;4.30;;;10.30;85.50;;;;;;5023504;28;20025;-46
2022/06/14 00:31:14;;;;;;;6.78;3.10;;;10.30;85.60;;;;;;5023627;28;20320;-44
2022/06/14 00:33:39;;;;;;;10.30;2.65;;;10.30;85.60;;;;;;5048353;28;20497;-43
2022/06/14 00:36:19;;;;;;;7.30;2.90;;;10.40;85.60;;;;;;5049978;28;20041;-43
2022/06/14 00:38:48;;;;;;;9.25;3.10;;;10.30;85.80;;;;;;5014557;28;20119;-45
2022/06/14 00:41:40;;;;;;;8.18;3.47;;;10.40;85.70;;;;;;5030052;28;20120;-43
2022/06/14 00:44:13;;;;;;;5.40;2.50;;;10.40;85.60;;;;;;5017540;28;20037;-45
2022/06/14 00:46:54;;;;;;;10.15;3.33;;;10.40;85.60;;;;;;5009940;28;20034;-43
2022/06/14 00:49:27;;;;;;;7.80;3.60;;;10.40;85.50;;;;;;5009535;28;20034;-45
2022/06/14 00:52:15;;;;;;;5.93;2.38;;;10.40;85.40;;;;;;5025504;28;20058;-43
2022/06/14 00:54:47;;;;;;;9.93;2.90;;;10.40;85.50;;;;;;5009406;28;20026;-46
2022/06/14 00:57:18;;;;;;;6.20;2.72;;;10.40;85.40;;;;;;5010026;28;20037;-43
2022/06/14 00:59:59;;;;;;;9.60;2.92;;;10.30;85.50;;;;;;5009081;28;20029;-44
2022/06/14 01:02:31;;;;;;;6.32;3.17;;;10.30;85.50;;;;;;5009643;28;20045;-44
2022/06/14 01:05:03;;;;;;;11.35;4.50;;;10.30;85.60;;;;;;5007667;28;20489;-43
2022/06/14 01:07:40;;;;;;;6.93;3.22;;;10.20;85.40;;;;;;5009616;28;20038;-44
2022/06/14 01:10:18;;;;;;;8.23;2.97;;;10.20;85.80;;;;;;5009142;28;20467;-44
2022/06/14 01:12:49;;;;;;;6.13;2.85;;;10.20;85.70;;;;;;5025341;28;20034;-43
2022/06/14 01:15:20;;;;;;;8.55;2.92;;;10.20;85.60;;;;;;5024158;28;20041;-44
2022/06/14 01:17:58;;;;;;;8.70;2.72;;;10.20;85.70;;;;;;4992533;28;20109;-43
2022/06/14 01:20:26;;;;;;;8.68;4.15;;;10.10;85.80;;;;;;5027415;28;20036;-43
2022/06/14 01:22:53;;;;;;;8.27;3.28;;;10.20;85.90;;;;;;5029353;28;20037;-43
2022/06/14 01:25:21;;;;;;;9.73;3.22;;;10.10;85.90;;;;;;5010913;28;20092;-45
2022/06/14 01:27:50;;;;;;;12.23;3.95;;;10.10;86.00;;;;;;5009728;28;20477;-44
2022/06/14 01:30:36;;;;;;;8.60;3.53;;;10.10;86.20;;;;;;5024957;28;20037;-44
2022/06/14 01:33:10;;;;;;;6.78;3.30;;;10.10;86.30;;;;;;5011899;28;20041;-45
2022/06/14 01:35:42;;;;;;;5.70;3.10;;;10.20;86.30;;;;;;5023078;28;20080;-44
2022/06/14 01:38:12;;;;;;;9.93;3.13;;;10.10;86.30;;;;;;5001221;28;20050;-45
2022/06/14 01:40:53;;;;;;;6.88;3.28;;;10.20;86.40;;;;;;5028220;28;20033;-43
2022/06/14 01:43:55;;;;;;;8.52;3.08;;;10.20;86.30;;;;;;5047596;28;20110;-44
2022/06/14 01:46:56;;;;;;;9.40;3.30;;;10.20;86.40;;;;;;5047810;28;20021;-43
2022/06/14 01:52:40;;;;;;;12.63;4.00;;;10.30;86.50;;;;;;5047243;28;20036;-42
2022/06/14 01:55:49;;;;;;;10.20;3.30;;;10.30;86.50;;;;;;5031417;28;20028;-42
2022/06/14 01:58:35;;;;;;;8.95;3.15;;;10.40;86.50;;;;;;5047397;28;20033;-44
2022/06/14 02:01:31;;;;;;;8.88;3.30;;;10.40;86.50;;;;;;5031536;28;20029;-44
2022/06/14 02:07:31;;;;;;;10.05;3.47;;;10.40;86.30;;;;;;5016899;28;20063;-43
2022/06/14 02:10:08;;;;;;;8.73;3.58;;;10.40;86.30;;;;;;5053140;28;20091;-43
2022/06/14 02:12:43;;;;;;;11.15;4.28;;;10.40;86.30;;;;;;5043757;28;20022;-44
2022/06/14 02:15:43;;;;;;;5.95;3.00;;;10.40;86.40;;;;;;5032901;28;20045;-43
2022/06/14 02:18:22;;;;;;;12.30;3.35;;;10.40;86.60;;;;;;5032241;28;20045;-46
2022/06/14 02:21:10;;;;;;;7.45;3.22;;;10.40;86.50;;;;;;5047776;28;20021;-46
2022/06/14 02:24:01;;;;;;;9.40;2.88;;;10.40;86.50;;;;;;5013097;28;20336;-44
2022/06/14 02:26:33;;;;;;;7.38;3.67;;;10.40;86.60;;;;;;5022213;28;20029;-44
2022/06/14 02:29:20;;;;;;;8.82;3.10;;;10.40;86.80;;;;;;5052688;28;20115;-45
2022/06/14 02:32:00;;;;;;;7.85;3.40;;;10.40;86.70;;;;;;5044283;28;20551;-45
2022/06/14 02:34:30;;;;;;;;;;;10.40;86.90;;;;;;5033027;28;20104;-43
2022/06/14 02:37:18;;;;;;;8.80;3.30;;;10.50;87.00;;;;;;5039376;28;19912;-43
2022/06/14 02:39:56;;;;;;;8.23;3.30;;;10.60;87.00;;;;;;5052258;28;20036;-44
2022/06/14 02:42:32;;;;;;;10.15;3.15;;;10.60;87.00;;;;;;5039804;28;20041;-44
2022/06/14 02:45:27;;;;;;;6.50;3.53;;;10.70;87.10;;;;;;5032381;28;20028;-42
2022/06/14 02:48:03;;;;;;;7.25;3.47;;;10.70;87.10;;;;;;5026993;28;20041;-42
2022/06/14 02:50:59;;;;;;;7.32;2.78;;;10.80;87.20;;;;;;5032003;28;20035;-44
2022/06/14 02:53:35;;;;;;;11.77;3.10;;;10.80;87.20;;;;;;5048135;28;20025;-45
2022/06/14 02:56:22;;;;;;;8.38;3.88;;;10.90;87.00;;;;;;5034487;28;20033;-46
2022/06/14 02:58:56;;;;;;;10.07;3.47;;;10.90;86.90;;;;;;5012312;28;20050;-46
2022/06/14 03:01:25;;;;;;;9.82;3.35;;;10.90;86.90;;;;;;5012344;28;20156;-43
2022/06/14 03:04:12;;;;;;;8.13;3.42;;;10.90;87.20;;;;;;5012213;28;20026;-46
2022/06/14 03:07:03;;;;;;;10.23;3.40;;;10.90;87.00;;;;;;5014035;28;20034;-43
2022/06/14 03:09:32;;;;;;;7.53;3.78;;;11.00;87.10;;;;;;5013983;28;20065;-45
2022/06/14 03:12:32;;;;;;;7.75;3.33;;;11.00;87.20;;;;;;5046638;28;20028;-44
2022/06/14 03:15:32;;;;;;;8.38;4.57;;;11.10;87.20;;;;;;5032104;28;20087;-45
2022/06/14 03:18:30;;;;;;;8.55;3.50;;;11.10;87.30;;;;;;5030507;28;20044;-46
2022/06/14 03:21:38;;;;;;;11.63;4.40;;;11.20;87.40;;;;;;5031736;28;20037;-43
2022/06/14 03:24:27;;;;;;;9.95;4.20;;;11.20;87.30;;;;;;5050931;28;20079;-44
2022/06/14 03:27:25;;;;;;;10.77;4.53;;;11.30;87.40;;;;;;5049736;28;20024;-44
2022/06/14 03:30:10;;;;;;;7.68;3.50;;;11.40;87.60;;;;;;5051240;28;20275;-45
2022/06/14 03:32:48;;;;;;;8.77;3.58;;;11.40;87.60;;;;;;5043473;28;20026;-46
2022/06/14 03:35:47;;;;;;;8.52;3.83;;;11.40;87.50;;;;;;5031570;28;20025;-45
2022/06/14 03:38:35;;;;;;;6.57;3.25;;;11.50;87.60;;;;;;5023304;28;20041;-45
2022/06/14 03:41:01;;;;;;;9.07;3.42;;;11.50;87.50;;;;;;5031387;28;20125;-47
2022/06/14 03:43:29;;;;;;;9.43;3.75;;;11.50;87.40;;;;;;5046083;28;20120;-46
2022/06/14 03:46:20;;;;;;;9.35;3.35;;;11.60;87.40;;;;;;5031112;28;20022;-44
2022/06/14 03:49:05;;;;;;;6.40;3.22;;;11.50;87.30;;;;;;5043626;28;20029;-43
2022/06/14 03:52:08;;;;;;;9.63;4.00;;;11.50;87.30;;;;;;5033146;28;20021;-45
2022/06/14 03:55:11;;;;;;;12.60;4.65;;;11.60;87.10;;;;;;5026400;28;20049;-45
2022/06/14 03:57:55;;;;;;;11.57;3.53;;;11.50;87.00;;;;;;5015604;28;20357;-44
2022/06/14 04:00:21;;;;;;;6.43;3.22;;;11.50;87.00;;;;;;5030638;28;20029;-46
2022/06/14 04:03:19;;;;;;;6.32;3.45;;;11.50;86.90;;;;;;5029888;28;20036;-44
2022/06/14 04:06:18;;;;;;;10.95;4.28;;;11.50;87.00;;;;;;5030701;28;20032;-43
2022/06/14 04:09:01;;;;;;;9.73;3.47;;;11.40;86.90;;;;;;5046046;28;20048;-44
2022/06/14 04:11:26;;;;;;;8.68;3.97;;;11.40;86.90;;;;;;5045507;28;20331;-44
2022/06/14 04:14:31;;;;;;;9.20;3.95;;;11.40;87.00;;;;;;5030518;28;20041;-44
2022/06/14 04:17:17;;;;;;;7.55;4.07;;;11.40;86.90;;;;;;5030646;28;20057;-43
2022/06/14 04:19:51;;;;;;;13.35;4.53;;;11.40;86.90;;;;;;5012467;28;20442;-43
2022/06/14 04:22:57;;;;;;;10.35;4.03;;;11.40;86.90;;;;;;5012880;28;20048;-43
2022/06/14 04:25:55;;;;;;;8.25;3.70;;;11.50;87.00;;;;;;5029645;28;20131;-43
2022/06/14 04:28:29;;;;;;;8.23;3.60;;;11.60;86.90;;;;;;5029762;28;20032;-43
2022/06/14 04:31:14;;;;;;;10.80;3.53;;;11.60;86.90;;;;;;5037300;28;20031;-43
2022/06/14 04:33:57;;;;;;;9.18;3.63;;;11.80;86.80;;;;;;5049775;28;20025;-43
2022/06/14 04:36:45;;;;;;;14.40;4.75;;;11.90;86.50;;;;;;5035817;28;20064;-45
2022/06/14 04:39:33;;;;;;;14.80;4.25;;;12.00;86.30;;;;;;5029898;28;20053;-43
2022/06/14 04:42:12;;;;;;;7.13;3.72;;;12.20;86.20;;;;;;5044684;28;20124;-44
2022/06/14 04:44:58;;;;;;;13.10;3.90;;;12.40;86.00;;;;;;5029985;28;20088;-43
2022/06/14 04:47:43;;;;;;;10.73;3.35;;;12.40;85.40;;;;;;5043266;28;20044;-45
2022/06/14 04:50:20;;;;;;;17.50;3.85;;;12.60;85.40;;;;;;5029533;28;20040;-43
2022/06/14 04:52:58;;;;;;;11.82;3.30;;;12.60;84.90;;;;;;5029803;28;20026;-45
2022/06/14 04:55:46;;;;;;;16.55;2.95;;;12.60;85.40;;;;;;5048874;28;20380;-43
2022/06/14 04:58:37;;;;;;;10.10;4.22;;;12.70;84.80;;;;;;5030360;28;20032;-44
2022/06/14 05:01:10;;;;;;;10.98;3.75;;;12.80;84.70;;;;;;5029839;28;20059;-44
2022/06/14 05:03:38;;;;;;;13.07;5.03;;;12.80;84.40;;;;;;5043615;28;20067;-43
2022/06/14 05:06:29;;;;;;;9.18;3.25;;;12.70;84.10;;;;;;5030143;28;20076;-45
2022/06/14 05:09:29;;;;;;;9.50;3.10;;;12.80;84.40;;;;;;5044403;28;20048;-44
2022/06/14 05:12:17;;;;;;;11.75;4.03;;;12.90;84.30;;;;;;5021097;28;20116;-46
2022/06/14 05:14:51;;;;;;;7.95;3.53;;;13.00;84.20;;;;;;5015443;28;20033;-44
2022/06/14 05:17:50;;;;;;;10.40;3.80;;;13.20;83.70;;;;;;5018793;28;20043;-44
2022/06/14 05:20:44;;;;;;;14.52;4.13;;;13.20;83.70;;;;;;5029607;28;20053;-43
2022/06/14 05:23:24;;;;;;;7.68;2.88;;;13.30;83.40;;;;;;4993203;28;20045;-44
2022/06/14 05:26:27;;;;;;;7.20;3.28;;;13.30;83.10;;;;;;5009664;28;20065;-44
2022/06/14 05:29:18;;;;;;;10.55;3.17;;;13.40;83.00;;;;;;5009600;28;20135;-46
2022/06/14 05:31:53;;;;;;;7.47;3.53;;;13.50;82.90;;;;;;5030411;28;20140;-45
2022/06/14 05:34:43;;;;;;;10.77;3.38;;;13.60;82.90;;;;;;5011999;28;20065;-45
2022/06/14 05:37:34;;;;;;;13.77;4.13;;;13.80;82.60;;;;;;5028771;28;20042;-45
2022/06/14 05:40:22;;;;;;;7.43;2.70;;;13.60;81.80;;;;;;5030864;28;20052;-44
2022/06/14 05:42:55;;;;;;;9.57;3.40;;;13.80;81.60;;;;;;5032808;28;20441;-45
2022/06/14 05:45:23;;;;;;;10.00;3.05;;;13.90;81.00;;;;;;5034625;28;20111;-46
2022/06/14 05:47:57;;;;;;;8.60;3.70;;;14.20;80.10;;;;;;5034822;28;20233;-45
2022/06/14 05:50:34;;;;;;;12.27;3.13;;;14.40;80.30;;;;;;5018174;28;20147;-45
2022/06/14 05:53:22;;;;;;;9.63;2.47;;;14.80;79.30;;;;;;5032769;28;20024;-46
2022/06/14 05:55:54;;;;;;;11.93;3.10;;;14.90;79.30;;;;;;5033324;28;20034;-45
2022/06/14 05:58:27;;;;;;;11.38;2.50;;;14.90;78.80;;;;;;4999208;28;20041;-45
2022/06/14 06:01:14;;;;;;;9.82;2.55;;;15.20;78.00;;;;;;5017397;28;20100;-45
2022/06/14 06:04:13;;;;;;;9.23;2.20;;;15.30;77.00;;;;;;5053014;28;20086;-44
2022/06/14 06:06:48;;;;;;;9.43;3.07;;;15.40;76.80;;;;;;5043283;28;20034;-45
2022/06/14 06:09:26;;;;;;;8.85;2.92;;;15.50;75.30;;;;;;5031920;28;20072;-44
2022/06/14 06:11:58;;;;;;;9.27;3.17;;;15.70;74.80;;;;;;5032399;28;20049;-45
2022/06/14 06:14:34;;;;;;;10.93;3.15;;;16.00;73.40;;;;;;5033039;28;20484;-45
2022/06/14 06:17:18;;;;;;;10.25;2.50;;;16.40;73.30;;;;;;5032264;28;20051;-45
2022/06/14 06:20:32;;;;;;;9.82;2.97;;;16.50;72.20;;;;;;5032776;28;20032;-45
2022/06/14 06:23:28;;;;;;;19.38;7.65;;;16.90;71.40;;;;;;4990386;28;20585;-45
2022/06/14 06:25:58;;;;;;;10.23;3.92;;;17.40;68.60;;;;;;5023377;28;20530;-45
2022/06/14 06:28:28;;;;;;;;;;;17.80;67.70;;;;;;5045275;28;20029;-46
2022/06/14 06:31:19;;;;;;;7.03;2.42;;;17.70;67.90;;;;;;5029240;28;19916;-45
2022/06/14 06:33:52;;;;;;;8.35;2.95;;;17.60;67.50;;;;;;5016245;28;20037;-46
2022/06/14 06:36:34;;;;;;;6.60;2.22;;;17.30;68.50;;;;;;5018443;28;20078;-45
2022/06/14 06:39:24;;;;;;;8.90;2.33;;;16.90;70.50;;;;;;5033951;28;20045;-45
2022/06/14 06:41:55;;;;;;;8.15;1.88;;;16.70;69.30;;;;;;5019532;28;20064;-45
2022/06/14 06:44:43;;;;;;;9.05;2.13;;;16.60;68.70;;;;;;5050365;28;20040;-46
2022/06/14 06:47:42;;;;;;;10.85;2.70;;;16.90;69.30;;;;;;5052013;28;20429;-46
2022/06/14 06:50:33;;;;;;;8.30;1.77;;;16.80;70.20;;;;;;5034050;28;20108;-45
2022/06/14 06:53:12;;;;;;;10.45;2.40;;;16.50;69.50;;;;;;5034418;28;20087;-46
2022/06/14 06:56:10;;;;;;;8.20;1.80;;;16.30;70.00;;;;;;5034029;28;20029;-45
2022/06/14 06:59:21;;;;;;;10.98;2.60;;;16.50;69.70;;;;;;5032550;28;20064;-45
2022/06/14 07:01:49;;;;;;;6.32;2.33;;;16.60;68.80;;;;;;5034119;28;20068;-46
2022/06/14 07:07:24;;;;;;;5.93;1.95;;;16.50;68.60;;;;;;5051785;28;20076;-45
2022/06/14 07:10:02;;;;;;;9.15;2.20;;;16.40;70.00;;;;;;5050142;28;20024;-45
2022/06/14 07:12:58;;;;;;;8.85;2.08;;;16.50;70.10;;;;;;5051854;28;20094;-45
2022/06/14 07:15:31;;;;;;;6.15;1.45;;;16.60;69.50;;;;;;5049849;28;20118;-45
2022/06/14 07:18:17;;;;;;;8.27;2.38;;;16.40;70.30;;;;;;5049283;28;20096;-46
2022/06/14 07:20:58;;;;;;;9.50;2.17;;;16.60;70.10;;;;;;5051811;28;20475;-47
2022/06/14 07:23:33;;;;;;;6.53;2.15;;;16.90;69.00;;;;;;5049660;28;20057;-45
2022/06/14 07:26:19;;;;;;;8.48;1.80;;;17.10;68.60;;;;;;5051388;28;20434;-46
2022/06/14 07:29:07;;;;;;;5.95;2.03;;;16.90;68.70;;;;;;5048724;28;20334;-46
2022/06/14 07:32:11;;;;;;;7.38;1.60;;;16.70;69.30;;;;;;5011643;28;20057;-45
2022/06/14 07:34:39;;;;;;;7.05;2.05;;;16.50;70.10;;;;;;5019865;28;20068;-45
2022/06/14 07:37:14;;;;;;;6.32;1.92;;;16.40;70.90;;;;;;5051236;28;20029;-46
2022/06/14 07:39:56;;;;;;;4.93;2.13;;;16.20;69.10;;;;;;5036359;28;20034;-46
2022/06/14 07:42:43;;;;;;;7.03;2.15;;;16.20;70.80;;;;;;5031260;28;20048;-46
2022/06/14 07:45:28;;;;;;;11.13;2.97;;;16.40;71.20;;;;;;5031141;28;20025;-48
2022/06/14 07:48:15;;;;;;;6.93;2.17;;;16.60;69.50;;;;;;5031398;28;20021;-47
2022/06/14 07:50:49;;;;;;;8.38;1.63;;;16.90;67.00;;;;;;5012077;28;20033;-45
2022/06/14 07:53:34;;;;;;;7.07;1.65;;;16.70;67.60;;;;;;5012003;28;20060;-48
2022/06/14 07:56:09;;;;;;;6.75;1.63;;;16.70;68.00;;;;;;5011261;28;20026;-50
2022/06/14 07:58:57;;;;;;;6.82;1.83;;;16.90;67.60;;;;;;5013468;28;20029;-46
2022/06/14 08:01:45;;;;;;;5.68;1.40;;;17.30;67.10;;;;;;5031108;28;20033;-46
2022/06/14 08:04:26;;;;;;;10.55;1.92;;;17.00;67.50;;;;;;5048924;28;20121;-46
2022/06/14 08:07:00;;;;;;;7.40;1.55;;;17.00;66.60;;;;;;5031586;28;20151;-45
2022/06/14 08:09:52;;;;;;;8.30;1.95;;;16.90;66.70;;;;;;5036870;28;20025;-46
2022/06/14 08:12:31;;;;;;;4.43;1.63;;;17.40;65.20;;;;;;5050515;28;20034;-47
2022/06/14 08:15:30;;;;;;;5.93;1.90;;;17.80;65.10;;;;;;5037208;28;20034;-45
2022/06/14 08:18:11;;;;;;;8.55;2.20;;;18.40;63.10;;;;;;5030534;28;20037;-45
2022/06/14 08:21:29;;;;;;;9.05;1.88;;;18.50;62.60;;;;;;5044967;28;20453;-46
2022/06/14 08:24:08;;;;;;;6.38;1.75;;;18.10;64.00;;;;;;4949268;29;20055;-46
2022/06/14 08:26:40;;;;;;;5.57;2.17;;;17.90;63.00;;;;;;4950392;29;20035;-47
2022/06/14 08:29:22;;;;;;;6.07;1.70;;;18.00;62.80;;;;;;4949242;29;20062;-46
2022/06/14 08:31:51;;;;;;;6.18;2.13;;;18.40;62.40;;;;;;4950259;29;20471;-46
2022/06/14 08:34:22;;;;;;;9.00;1.70;;;18.40;62.20;;;;;;4949257;29;20038;-48
2022/06/14 08:37:22;;;;;;;6.82;1.70;;;18.70;61.60;;;;;;4950195;28;20054;-46
2022/06/14 08:39:56;;;;;;;5.38;1.63;;;18.80;61.00;;;;;;4933498;29;20051;-45
2022/06/14 08:42:32;;;;;;;6.25;1.42;;;18.60;60.30;;;;;;4934227;29;20031;-46
2022/06/14 08:45:03;;;;;;;5.32;1.45;;;18.80;60.50;;;;;;4949377;29;20054;-46
2022/06/14 08:47:48;;;;;;;6.53;1.90;;;19.30;60.00;;;;;;4949846;29;20142;-46
2022/06/14 08:50:51;;;;;;;6.25;1.70;;;19.50;57.70;;;;;;4949139;29;20098;-46
2022/06/14 08:53:54;;;;;;;5.97;1.55;;;19.30;57.60;;;;;;4949855;28;20043;-46
2022/06/14 08:56:59;;;;;;;6.15;1.65;;;18.60;57.90;;;;;;4949110;29;20049;-51
2022/06/14 08:59:49;;;;;;;4.28;1.65;;;18.80;60.20;;;;;;4971100;28;20494;-46
2022/06/14 09:02:20;;;;;;;;;;;19.40;59.50;;;;;;5010524;28;20079;-47
2022/06/14 09:05:25;;;;;;;6.60;2.05;;;19.10;57.60;;;;;;5009535;28;20058;-46
2022/06/14 09:08:17;;;;;;;4.03;1.38;;;18.90;57.40;;;;;;4992681;28;20041;-47
2022/06/14 09:10:55;;;;;;;6.53;1.85;;;18.80;59.40;;;;;;5009059;28;20029;-48
2022/06/14 09:13:58;;;;;;;6.40;1.55;;;19.20;59.80;;;;;;5009508;28;20046;-46
2022/06/14 09:16:59;;;;;;;4.45;1.38;;;19.70;58.90;;;;;;5025505;28;20037;-46
2022/06/14 09:19:41;;;;;;;3.92;1.08;;;19.90;58.00;;;;;;4960598;28;20126;-47
2022/06/14 09:23:01;;;;;;;6.07;1.83;;;19.70;57.60;;;;;;5009778;28;20113;-46
2022/06/14 09:25:35;;;;;;;;;;;19.60;57.00;;;;;;5004460;28;20443;-46
2022/06/14 09:28:31;;;;;;;3.97;1.10;;;19.60;57.10;;;;;;5012033;28;19928;-46
2022/06/14 09:31:24;;;;;;;5.05;1.40;;;20.00;56.50;;;;;;5016118;28;20038;-50
2022/06/14 09:34:17;;;;;;;6.03;1.85;;;20.10;55.60;;;;;;5009450;28;20033;-47
2022/06/14 09:36:50;;;;;;;5.97;1.90;;;20.30;57.00;;;;;;5008955;28;20053;-47
2022/06/14 09:40:00;;;;;;;5.65;1.58;;;20.40;54.40;;;;;;5027680;28;20056;-47
2022/06/14 09:43:06;;;;;;;6.03;1.60;;;20.70;54.40;;;;;;5010115;28;20060;-47
2022/06/14 09:46:12;;;;;;;5.30;0.90;;;20.80;54.90;;;;;;4989997;28;20576;-50
2022/06/14 09:49:17;;;;;;;6.43;2.03;;;21.00;55.20;;;;;;5007372;28;20065;-47
2022/06/14 09:51:58;;;;;;;7.45;1.83;;;20.80;56.10;;;;;;5029127;28;20040;-47
2022/06/14 09:54:45;;;;;;;7.32;2.40;;;20.60;56.00;;;;;;5026719;28;20036;-46
2022/06/14 09:57:58;;;;;;;5.85;1.80;;;20.30;56.80;;;;;;5029349;28;20462;-47
2022/06/14 10:00:35;;;;;;;7.57;1.50;;;19.70;57.10;;;;;;4981513;28;20062;-47
2022/06/14 10:03:17;;;;;;;6.03;1.88;;;19.30;58.10;;;;;;5008743;28;20034;-47
2022/06/14 10:05:45;;;;;;;5.80;1.75;;;19.40;60.60;;;;;;5024533;28;20507;-49
2022/06/14 10:08:33;;;;;;;3.10;0.90;;;20.00;59.20;;;;;;5011390;28;20030;-50
2022/06/14 10:11:42;;;;;;;5.75;1.67;;;20.80;58.70;;;;;;4999393;28;20042;-47
2022/06/14 10:14:11;;;;;;;5.47;1.45;;;20.50;56.30;;;;;;5018479;28;20021;-46
2022/06/14 10:17:07;;;;;;;5.85;1.65;;;19.80;56.90;;;;;;5028709;28;20033;-47
2022/06/14 10:19:51;;;;;;;5.03;1.67;;;19.90;60.00;;;;;;4997507;28;20026;-50
2022/06/14 10:22:43;;;;;;;7.25;1.55;;;20.80;57.90;;;;;;5009406;28;20127;-47
2022/06/14 10:25:31;;;;;;;3.65;1.20;;;21.50;55.90;;;;;;4987478;28;20062;-50
2022/06/14 10:28:22;;;;;;;5.47;2.00;;;21.20;55.80;;;;;;5013194;28;20029;-48
2022/06/14 10:31:09;;;;;;;5.55;1.75;;;21.00;55.60;;;;;;5028413;28;20038;-46
2022/06/14 10:34:08;;;;;;;6.20;1.70;;;21.10;56.50;;;;;;5012683;28;20018;-46
2022/06/14 10:36:55;;;;;;;6.90;1.77;;;21.20;54.90;;;;;;4995715;28;20038;-47
2022/06/14 10:39:50;;;;;;;7.30;1.48;;;21.50;54.20;;;;;;5027291;28;20034;-51
2022/06/14 10:42:18;;;;;;;4.70;1.30;;;21.40;56.60;;;;;;4985018;28;20046;-52
2022/06/14 10:44:56;;;;;;;6.53;1.40;;;21.20;57.30;;;;;;4995374;28;20420;-50
2022/06/14 10:47:48;;;;;;;6.35;1.45;;;21.50;54.20;;;;;;5028156;28;20072;-47
2022/06/14 10:50:38;;;;;;;4.68;1.40;;;20.90;55.20;;;;;;5015360;28;20330;-49
2022/06/14 10:53:23;;;;;;;;;;;21.10;56.30;;;;;;4992935;28;20026;-47
2022/06/14 10:56:26;;;;;;;4.15;1.95;;;21.20;57.40;;;;;;5026436;28;19916;-46
2022/06/14 10:59:29;;;;;;;5.72;1.30;;;21.70;55.60;;;;;;5028143;28;20069;-49
2022/06/14 11:02:04;;;;;;;4.57;1.75;;;21.80;52.80;;;;;;5011488;28;20361;-47
2022/06/14 11:04:48;;;;;;;4.53;1.10;;;20.90;53.90;;;;;;5018637;28;20064;-46
2022/06/14 11:07:37;;;;;;;3.85;1.30;;;19.80;56.40;;;;;;5031501;28;20029;-46
2022/06/14 11:10:25;;;;;;;5.38;1.30;;;19.10;59.20;;;;;;5029238;28;20026;-46
2022/06/14 11:13:21;;;;;;;5.47;1.20;;;18.50;60.50;;;;;;5030697;28;20555;-48
2022/06/14 11:16:09;;;;;;;3.75;1.27;;;18.90;61.60;;;;;;5013690;28;20494;-46
2022/06/14 11:19:18;;;;;;;5.55;1.15;;;19.90;58.40;;;;;;5012034;28;20034;-49
2022/06/14 11:21:58;;;;;;;3.17;1.35;;;20.90;57.40;;;;;;5011929;28;20034;-48
2022/06/14 11:24:35;;;;;;;6.30;1.30;;;21.60;53.50;;;;;;5011248;28;20034;-46
2022/06/14 11:27:28;;;;;;;8.50;1.58;;;21.90;53.40;;;;;;5027289;28;20034;-50
2022/06/14 11:30:46;;;;;;;6.65;1.63;;;21.60;53.10;;;;;;5018719;28;20117;-46
2022/06/14 11:33:40;;;;;;;5.07;1.38;;;20.90;54.90;;;;;;5031427;28;20044;-46
2022/06/14 11:36:35;;;;;;;5.18;1.40;;;19.90;58.00;;;;;;5024064;28;20037;-48
2022/06/14 11:39:22;;;;;;;4.43;1.30;;;19.30;59.70;;;;;;5043782;28;20071;-49
2022/06/14 11:41:51;;;;;;;6.47;2.33;;;18.80;61.10;;;;;;5011583;28;20018;-47
2022/06/14 11:44:40;;;;;;;6.95;1.50;;;18.40;61.10;;;;;;5016801;28;20029;-47
2022/06/14 11:47:22;;;;;;;5.15;1.40;;;18.20;62.80;;;;;;5030655;28;20168;-49
2022/06/14 11:49:56;;;;;;;3.67;1.48;;;18.00;63.50;;;;;;5031184;28;20112;-47
2022/06/14 11:52:54;;;;;;;4.10;1.15;;;18.00;64.00;;;;;;5031119;28;20040;-47
2022/06/14 11:55:42;;;;;;;3.90;1.30;;;17.90;64.10;;;;;;5031958;28;20354;-49
2022/06/14 11:58:31;;;;;;;3.78;1.70;;;17.80;65.10;;;;;;5045813;28;20025;-46
2022/06/14 12:01:16;;;;;;;;;;;17.90;63.90;;;;;;5015034;28;20365;-47
2022/06/14 12:03:44;;;;;;;3.58;1.50;;;17.90;63.60;;;;;;5013851;28;19956;-49
2022/06/14 12:06:19;;;;;;;9.90;2.45;;;17.90;63.60;;;;;;5030956;28;20104;-46
2022/06/14 12:09:18;;;;;;;4.72;1.60;;;17.80;63.70;;;;;;5032081;28;20022;-47
2022/06/14 12:11:49;;;;;;;4.65;1.33;;;17.80;64.20;;;;;;4993698;28;20033;-50
2022/06/14 12:14:37;;;;;;;4.57;1.40;;;17.80;64.70;;;;;;5045673;28;20033;-49
2022/06/14 12:17:19;;;;;;;7.55;1.55;;;17.70;64.80;;;;;;5013302;28;20175;-47
2022/06/14 12:19:53;;;;;;;3.67;1.45;;;17.70;65.10;;;;;;5047774;28;20159;-47
2022/06/14 12:22:36;;;;;;;4.07;1.58;;;17.70;64.60;;;;;;5049290;28;20113;-50
2022/06/14 12:28:28;;;;;;;4.25;1.13;;;17.70;66.10;;;;;;5043893;28;20380;-46
2022/06/14 12:31:13;;;;;;;5.85;1.77;;;17.60;64.70;;;;;;5030238;28;20064;-47
2022/06/14 12:33:56;;;;;;;4.15;1.35;;;17.60;64.30;;;;;;5044815;28;20669;-50
2022/06/14 12:36:44;;;;;;;4.70;1.30;;;17.50;65.30;;;;;;5028930;28;20131;-47
2022/06/14 12:39:20;;;;;;;3.70;1.67;;;17.60;65.40;;;;;;5035034;28;20130;-46
2022/06/14 12:42:28;;;;;;;3.70;1.40;;;17.80;65.40;;;;;;5030166;28;20052;-47
2022/06/14 12:45:05;;;;;;;6.50;1.83;;;17.80;64.60;;;;;;4991151;28;20041;-47
2022/06/14 12:48:03;;;;;;;4.15;1.58;;;17.90;64.30;;;;;;5029163;28;20025;-47
2022/06/14 12:50:37;;;;;;;3.83;1.20;;;17.90;63.80;;;;;;5010314;28;20038;-47
2022/06/14 12:53:56;;;;;;;3.08;0.90;;;17.90;63.80;;;;;;5015593;28;20032;-47
2022/06/14 12:56:39;;;;;;;4.20;1.30;;;18.10;63.60;;;;;;4988234;28;20148;-47
2022/06/14 12:59:26;;;;;;;4.85;1.38;;;18.20;64.40;;;;;;5029490;28;20029;-47
2022/06/14 13:02:14;;;;;;;3.85;1.20;;;18.40;63.10;;;;;;5029826;28;20566;-46
2022/06/14 13:05:04;;;;;;;3.10;1.10;;;18.50;62.00;;;;;;5029805;28;20068;-47
2022/06/14 13:08:12;;;;;;;4.78;1.35;;;18.60;62.70;;;;;;5029510;28;20030;-47
2022/06/14 13:11:05;;;;;;;6.57;1.55;;;18.60;62.80;;;;;;5010417;28;20048;-49
2022/06/14 13:14:14;;;;;;;8.85;1.70;;;18.70;61.40;;;;;;5006566;28;20165;-47
2022/06/14 13:17:27;;;;;;;5.68;2.13;;;18.60;62.70;;;;;;5001729;28;20077;-47
2022/06/14 13:20:20;;;;;;;4.28;1.52;;;18.70;61.70;;;;;;5027609;28;20034;-48
2022/06/14 13:22:59;;;;;;;6.97;1.23;;;18.50;62.10;;;;;;5029172;28;20036;-47
2022/06/14 13:25:57;;;;;;;4.38;1.50;;;18.50;63.30;;;;;;5024947;28;20121;-47
2022/06/14 13:28:40;;;;;;;5.18;1.13;;;18.60;61.90;;;;;;5014162;28;20033;-48
2022/06/14 13:31:31;;;;;;;3.85;1.00;;;18.70;62.70;;;;;;5029412;28;20033;-48
2022/06/14 13:34:46;;;;;;;4.05;1.52;;;18.50;62.80;;;;;;5019324;28;20104;-46
2022/06/14 13:37:29;;;;;;;2.95;1.20;;;18.40;62.60;;;;;;4968397;28;20448;-47
2022/06/14 13:40:19;;;;;;;4.65;1.40;;;18.30;62.60;;;;;;5041605;28;20045;-48
2022/06/14 13:42:57;;;;;;;4.13;1.35;;;18.20;62.90;;;;;;5049061;28;20466;-48
2022/06/14 13:45:43;;;;;;;4.38;1.17;;;18.20;63.50;;;;;;5029244;28;20191;-47
2022/06/14 13:48:45;;;;;;;4.32;1.13;;;18.10;64.60;;;;;;5028455;28;20033;-47
2022/06/14 13:51:29;;;;;;;4.65;1.30;;;17.90;64.70;;;;;;4992045;28;20065;-46
2022/06/14 13:54:34;;;;;;;3.80;1.70;;;17.90;65.30;;;;;;5015338;28;20022;-46
2022/06/14 13:57:31;;;;;;;4.13;1.20;;;18.00;65.00;;;;;;5028906;28;20039;-49
2022/06/14 14:00:08;;;;;;;3.72;1.45;;;17.90;63.90;;;;;;5043970;28;20461;-47
2022/06/14 14:03:15;;;;;;;6.57;1.45;;;18.20;63.40;;;;;;5033137;28;20357;-46
2022/06/14 14:05:55;;;;;;;4.95;1.48;;;18.20;63.00;;;;;;5032770;28;20470;-47
2022/06/14 14:08:33;;;;;;;4.53;1.10;;;18.10;63.60;;;;;;5048412;28;20354;-51
2022/06/14 14:11:18;;;;;;;4.72;1.30;;;18.00;63.80;;;;;;5049919;28;20033;-46
2022/06/14 14:13:51;;;;;;;4.80;1.48;;;18.00;63.00;;;;;;5049542;28;20036;-46
2022/06/14 14:16:37;;;;;;;7.05;1.52;;;18.00;63.10;;;;;;5032612;28;20045;-46
2022/06/14 14:19:34;;;;;;;5.90;2.15;;;18.10;64.00;;;;;;5010741;28;20064;-47
2022/06/14 14:22:40;;;;;;;4.15;1.40;;;18.20;63.10;;;;;;4995115;28;20026;-48
2022/06/14 14:25:33;;;;;;;2.97;1.00;;;18.20;62.80;;;;;;5007770;28;20030;-49
2022/06/14 14:28:16;;;;;;;3.35;1.20;;;18.30;63.60;;;;;;5021490;28;20048;-46
2022/06/14 14:31:03;;;;;;;3.88;1.40;;;18.40;63.10;;;;;;5032109;28;20539;-46
2022/06/14 14:33:32;;;;;;;3.58;1.00;;;18.50;62.70;;;;;;5032338;28;20029;-46